Time;durP1;ratioP1;P1;durP2;ratioP2;P2;SDS_P1;SDS_P2;PMS_P1;PMS_P2;Temp;Humidity;BMP_temperature;BMP_pressure;BME280_temperature;BME280_humidity;BME280_pressure;Samples;Min_cycle;Max_cycle;Signal;HPM_P1;HPM_P2
2023/12/01 01:25:01;;;;;;;1999.90;999.90;;;;;;;;;;5787147;23;20522;-69
2023/12/01 01:27:47;;;;;;;1999.90;999.90;;;;;;;;;;4912298;29;20458;-68
2023/12/01 01:30:32;;;;;;;1999.90;999.90;;;;;;;;;;4908794;28;20448;-69
2023/12/01 01:33:17;;;;;;;1999.90;999.90;;;;;;;;;;4913870;29;21016;-68
2023/12/01 01:36:02;;;;;;;1999.90;999.90;;;;;;;;;;4906901;29;21048;-69
2023/12/01 01:38:47;;;;;;;1999.90;999.90;;;;;;;;;;4913426;28;20498;-69
2023/12/01 01:41:33;;;;;;;1999.90;999.90;;;;;;;;;;4913909;29;20439;-70
2023/12/01 01:44:18;;;;;;;1999.90;999.90;;;;;;;;;;4908623;29;20455;-69
2023/12/01 01:47:03;;;;;;;1999.90;999.90;;;;;;;;;;4913726;28;20415;-69
2023/12/01 01:49:48;;;;;;;1999.90;999.90;;;;;;;;;;4910607;28;20439;-70
2023/12/01 01:52:35;;;;;;;1999.90;999.90;;;;;;;;;;4913765;28;20224;-69
2023/12/01 01:55:21;;;;;;;1999.90;999.90;;;;;;;;;;4908242;29;20457;-69
2023/12/01 01:58:07;;;;;;;1999.90;999.90;;;;;;;;;;4913820;29;21246;-69
2023/12/01 02:00:52;;;;;;;1999.90;999.90;;;;;;;;;;4913489;28;20929;-70
2023/12/01 02:03:38;;;;;;;1999.90;999.90;;;;;;;;;;4913568;29;20434;-68
2023/12/01 02:06:30;;;;;;;1999.90;999.90;;;;;;;;;;4913897;28;20470;-69
2023/12/01 02:09:16;;;;;;;1999.90;999.90;;;;;;;;;;4909274;29;20527;-69
2023/12/01 02:12:01;;;;;;;1999.90;999.90;;;;;;;;;;4944821;28;20408;-69
2023/12/01 02:14:47;;;;;;;1999.90;999.90;;;;;;;;;;4913275;29;20320;-69
2023/12/01 02:17:32;;;;;;;1999.90;999.90;;;;;;;;;;4913587;29;20492;-69
2023/12/01 02:20:17;;;;;;;1999.90;999.90;;;;;;;;;;4913684;29;20801;-67
2023/12/01 02:23:04;;;;;;;1999.90;999.90;;;;;;;;;;4905536;29;21061;-69
2023/12/01 02:25:49;;;;;;;1999.90;999.90;;;;;;;;;;4912683;29;20487;-68
2023/12/01 02:28:35;;;;;;;1999.90;999.90;;;;;;;;;;4914368;29;20558;-69
2023/12/01 02:31:19;;;;;;;1999.90;999.90;;;;;;;;;;4914677;28;20433;-69
2023/12/01 02:34:04;;;;;;;1999.90;999.90;;;;;;;;;;4913048;28;20547;-69
2023/12/01 02:36:49;;;;;;;1999.90;999.90;;;;;;;;;;4913285;28;20933;-70
2023/12/01 02:39:36;;;;;;;1999.90;999.90;;;;;;;;;;4913033;28;20434;-70
2023/12/01 02:42:21;;;;;;;1999.90;999.90;;;;;;;;;;4912882;28;20432;-69
2023/12/01 02:45:07;;;;;;;1999.90;999.90;;;;;;;;;;4912336;29;20474;-70
2023/12/01 02:47:52;;;;;;;1999.90;999.90;;;;;;;;;;4912694;28;20425;-69
2023/12/01 02:50:37;;;;;;;1999.90;999.90;;;;;;;;;;4912817;28;20435;-69
2023/12/01 02:53:23;;;;;;;1999.90;999.90;;;;;;;;;;4912815;29;20482;-69
2023/12/01 02:56:10;;;;;;;1999.90;999.90;;;;;;;;;;4905748;29;20436;-69
2023/12/01 02:58:55;;;;;;;1999.90;999.90;;;;;;;;;;4913269;29;20448;-69
2023/12/01 03:01:40;;;;;;;1999.90;999.90;;;;;;;;;;4913079;29;20436;-69
2023/12/01 03:04:25;;;;;;;1999.90;999.90;;;;;;;;;;4893920;28;20451;-70
2023/12/01 03:07:10;;;;;;;1999.90;999.90;;;;;;;;;;4895467;29;20479;-69
2023/12/01 03:09:55;;;;;;;1999.90;999.90;;;;;;;;;;4897672;28;20421;-69
2023/12/01 03:12:42;;;;;;;1999.90;999.90;;;;;;;;;;4897416;29;20967;-70
2023/12/01 03:15:29;;;;;;;1999.90;999.90;;;;;;;;;;4910887;29;20424;-70
2023/12/01 03:18:14;;;;;;;1999.90;999.90;;;;;;;;;;4897513;29;20215;-68
2023/12/01 03:20:59;;;;;;;1999.90;999.90;;;;;;;;;;4915225;28;20995;-69
2023/12/01 03:23:44;;;;;;;1999.90;999.90;;;;;;;;;;4916205;29;20433;-69
2023/12/01 03:26:29;;;;;;;1999.90;999.90;;;;;;;;;;4914034;28;20494;-69
2023/12/01 03:29:16;;;;;;;1999.90;999.90;;;;;;;;;;4908775;29;20907;-69
2023/12/01 03:32:01;;;;;;;1999.90;999.90;;;;;;;;;;4915940;28;20435;-71
2023/12/01 03:34:46;;;;;;;1999.90;999.90;;;;;;;;;;4915289;28;20229;-72
2023/12/01 03:37:31;;;;;;;1999.90;999.90;;;;;;;;;;4915836;28;20436;-71
2023/12/01 03:40:16;;;;;;;1999.90;999.90;;;;;;;;;;4915889;29;20995;-72
2023/12/01 03:43:01;;;;;;;1999.90;999.90;;;;;;;;;;4915562;29;20472;-71
2023/12/01 03:45:47;;;;;;;1999.90;999.90;;;;;;;;;;4915675;28;20748;-71
2023/12/01 03:48:33;;;;;;;1999.90;999.90;;;;;;;;;;4915498;29;20921;-71
2023/12/01 03:51:18;;;;;;;1999.90;999.90;;;;;;;;;;4908839;29;20540;-71
2023/12/01 03:54:03;;;;;;;1999.90;999.90;;;;;;;;;;4915398;29;20420;-71
2023/12/01 03:56:48;;;;;;;1999.90;999.90;;;;;;;;;;4915561;29;20273;-71
2023/12/01 03:59:33;;;;;;;1999.90;999.90;;;;;;;;;;4915713;29;20433;-70
2023/12/01 04:02:21;;;;;;;1999.90;999.90;;;;;;;;;;4914567;29;20465;-71
2023/12/01 04:05:07;;;;;;;1999.90;999.90;;;;;;;;;;4914811;28;20472;-71
2023/12/01 04:07:53;;;;;;;1999.90;999.90;;;;;;;;;;4915276;28;20713;-70
2023/12/01 04:10:38;;;;;;;1999.90;999.90;;;;;;;;;;4910472;29;20499;-71
2023/12/01 04:13:24;;;;;;;1999.90;999.90;;;;;;;;;;4914504;28;20209;-71
2023/12/01 04:16:09;;;;;;;1999.90;999.90;;;;;;;;;;4914951;28;20261;-71
2023/12/01 04:18:56;;;;;;;1999.90;999.90;;;;;;;;;;4915131;28;20749;-71
2023/12/01 04:21:41;;;;;;;1999.90;999.90;;;;;;;;;;4915089;28;20515;-71
2023/12/01 04:24:28;;;;;;;1999.90;999.90;;;;;;;;;;4914518;29;20333;-71
2023/12/01 04:27:14;;;;;;;1999.90;999.90;;;;;;;;;;4914611;28;20248;-71
2023/12/01 04:29:58;;;;;;;1999.90;999.90;;;;;;;;;;4914886;28;20508;-71
2023/12/01 04:32:43;;;;;;;1999.90;999.90;;;;;;;;;;4914931;28;20432;-71
2023/12/01 04:35:30;;;;;;;1999.90;999.90;;;;;;;;;;4914961;28;20500;-73
2023/12/01 04:38:15;;;;;;;1999.90;999.90;;;;;;;;;;4914247;28;20501;-71
2023/12/01 04:41:01;;;;;;;1999.90;999.90;;;;;;;;;;4914878;28;20264;-71
2023/12/01 04:43:46;;;;;;;1999.90;999.90;;;;;;;;;;4914553;28;20213;-72
2023/12/01 04:46:31;;;;;;;1999.90;999.90;;;;;;;;;;4908830;28;20473;-72
2023/12/01 04:49:16;;;;;;;1999.90;999.90;;;;;;;;;;4913704;29;20234;-71
2023/12/01 04:52:03;;;;;;;1999.90;999.90;;;;;;;;;;4914560;29;20814;-71
2023/12/01 04:54:47;;;;;;;1999.90;999.90;;;;;;;;;;4911753;29;20246;-71
2023/12/01 04:57:33;;;;;;;1999.90;999.90;;;;;;;;;;4908971;28;20413;-71
2023/12/01 05:00:21;;;;;;;1999.90;999.90;;;;;;;;;;4913073;28;20432;-71
2023/12/01 05:03:07;;;;;;;1999.90;999.90;;;;;;;;;;4914475;29;20217;-71
2023/12/01 05:05:53;;;;;;;1999.90;999.90;;;;;;;;;;4912631;29;20260;-71
2023/12/01 05:08:40;;;;;;;1999.90;999.90;;;;;;;;;;4914402;29;20429;-71
2023/12/01 05:11:24;;;;;;;1999.90;999.90;;;;;;;;;;4913196;29;20217;-71
2023/12/01 05:14:10;;;;;;;1999.90;999.90;;;;;;;;;;4912490;29;20821;-71
2023/12/01 05:16:54;;;;;;;1999.90;999.90;;;;;;;;;;4910220;29;20332;-71
2023/12/01 05:19:39;;;;;;;1999.90;999.90;;;;;;;;;;4913572;29;20468;-71
2023/12/01 05:22:24;;;;;;;1999.90;999.90;;;;;;;;;;4914260;29;20213;-71
2023/12/01 05:25:13;;;;;;;1999.90;999.90;;;;;;;;;;4912912;29;20594;-71
2023/12/01 05:27:59;;;;;;;1999.90;999.90;;;;;;;;;;4914277;29;20302;-71
2023/12/01 05:30:45;;;;;;;1999.90;999.90;;;;;;;;;;4912647;29;20539;-71
2023/12/01 05:33:32;;;;;;;1999.90;999.90;;;;;;;;;;4914135;29;20404;-71
2023/12/01 05:36:17;;;;;;;1999.90;999.90;;;;;;;;;;4913070;29;20589;-71
2023/12/01 05:39:12;;;;;;;1999.90;999.90;;;;;;;;;;4914100;29;20225;-71
2023/12/01 05:41:59;;;;;;;1999.90;999.90;;;;;;;;;;4910883;29;20734;-71
2023/12/01 05:44:44;;;;;;;1999.90;999.90;;;;;;;;;;4911614;29;20480;-71
2023/12/01 05:47:29;;;;;;;1999.90;999.90;;;;;;;;;;4913832;29;20369;-71
2023/12/01 05:50:14;;;;;;;1999.90;999.90;;;;;;;;;;4912248;29;20214;-71
2023/12/01 05:53:00;;;;;;;1999.90;999.90;;;;;;;;;;4913682;28;20590;-71
2023/12/01 05:55:45;;;;;;;1999.90;999.90;;;;;;;;;;4911884;29;20237;-71
2023/12/01 05:58:31;;;;;;;1999.90;999.90;;;;;;;;;;4941678;28;20226;-71
2023/12/01 06:01:16;;;;;;;1999.90;999.90;;;;;;;;;;4910681;29;20210;-71
2023/12/01 06:04:02;;;;;;;1999.90;999.90;;;;;;;;;;4912664;29;20420;-71
2023/12/01 06:06:47;;;;;;;1999.90;999.90;;;;;;;;;;4909043;29;20237;-71
2023/12/01 06:09:33;;;;;;;1999.90;999.90;;;;;;;;;;4912894;29;20210;-71
2023/12/01 06:12:18;;;;;;;1999.90;999.90;;;;;;;;;;4911484;28;20217;-70
2023/12/01 06:15:06;;;;;;;1999.90;999.90;;;;;;;;;;4913063;29;20316;-71
2023/12/01 06:17:51;;;;;;;1999.90;999.90;;;;;;;;;;4913332;29;20314;-71
2023/12/01 06:20:37;;;;;;;1999.90;999.90;;;;;;;;;;4907405;28;20221;-70
2023/12/01 06:23:22;;;;;;;1999.90;999.90;;;;;;;;;;4905518;29;20218;-71
2023/12/01 06:26:07;;;;;;;1999.90;999.90;;;;;;;;;;4904086;29;20582;-71
2023/12/01 06:28:52;;;;;;;1999.90;999.90;;;;;;;;;;4916065;29;20597;-72
2023/12/01 06:31:38;;;;;;;1999.90;999.90;;;;;;;;;;4914105;29;20423;-70
2023/12/01 06:34:24;;;;;;;1999.90;999.90;;;;;;;;;;4912775;29;20238;-70
2023/12/01 06:37:09;;;;;;;1999.90;999.90;;;;;;;;;;4912652;28;20218;-71
2023/12/01 06:39:54;;;;;;;1999.90;999.90;;;;;;;;;;4908747;28;20545;-70
2023/12/01 06:42:42;;;;;;;1999.90;999.90;;;;;;;;;;4911769;28;20449;-71
2023/12/01 06:45:28;;;;;;;1999.90;999.90;;;;;;;;;;4912728;28;20308;-70
2023/12/01 06:48:14;;;;;;;1999.90;999.90;;;;;;;;;;4911646;28;20487;-70
2023/12/01 06:51:00;;;;;;;1999.90;999.90;;;;;;;;;;4912423;29;20213;-70
2023/12/01 06:53:45;;;;;;;1999.90;999.90;;;;;;;;;;4907135;28;20706;-69
2023/12/01 06:56:30;;;;;;;1999.90;999.90;;;;;;;;;;4909704;29;20799;-70
2023/12/01 06:59:15;;;;;;;1999.90;999.90;;;;;;;;;;4910609;28;20460;-72
2023/12/01 07:02:00;;;;;;;1999.90;999.90;;;;;;;;;;4912515;28;20441;-70
2023/12/01 07:04:46;;;;;;;1999.90;999.90;;;;;;;;;;4912634;29;20630;-70
2023/12/01 07:07:31;;;;;;;1999.90;999.90;;;;;;;;;;4905106;29;20472;-70
2023/12/01 07:10:16;;;;;;;1999.90;999.90;;;;;;;;;;4912410;28;20805;-71
2023/12/01 07:13:01;;;;;;;1999.90;999.90;;;;;;;;;;4905217;29;20285;-70
2023/12/01 07:15:45;;;;;;;1999.90;999.90;;;;;;;;;;4907289;28;20245;-69
2023/12/01 07:18:30;;;;;;;1999.90;999.90;;;;;;;;;;4899943;29;20420;-69
2023/12/01 07:21:17;;;;;;;1999.90;999.90;;;;;;;;;;4904635;29;20448;-70
2023/12/01 07:24:04;;;;;;;1999.90;999.90;;;;;;;;;;4912349;29;20427;-71
2023/12/01 07:26:51;;;;;;;1999.90;999.90;;;;;;;;;;4912410;28;20230;-70
2023/12/01 07:29:37;;;;;;;1999.90;999.90;;;;;;;;;;4912554;29;20219;-71
2023/12/01 07:32:22;;;;;;;1999.90;999.90;;;;;;;;;;4912274;29;20352;-71
2023/12/01 07:35:09;;;;;;;1999.90;999.90;;;;;;;;;;4911992;29;20511;-71
2023/12/01 07:37:56;;;;;;;1999.90;999.90;;;;;;;;;;4907887;29;20421;-70
2023/12/01 07:40:40;;;;;;;1999.90;999.90;;;;;;;;;;4905881;29;20520;-70
2023/12/01 07:43:25;;;;;;;1999.90;999.90;;;;;;;;;;4912041;28;20432;-68
2023/12/01 07:46:10;;;;;;;1999.90;999.90;;;;;;;;;;4912330;29;20588;-71
2023/12/01 07:48:56;;;;;;;1999.90;999.90;;;;;;;;;;4903473;29;20488;-71
2023/12/01 07:51:41;;;;;;;1999.90;999.90;;;;;;;;;;4906070;28;20689;-70
2023/12/01 07:54:28;;;;;;;1999.90;999.90;;;;;;;;;;4914757;28;20209;-70
2023/12/01 07:57:12;;;;;;;1999.90;999.90;;;;;;;;;;4915238;28;20588;-70
2023/12/01 07:59:57;;;;;;;1999.90;999.90;;;;;;;;;;4915596;29;20236;-71
2023/12/01 08:02:42;;;;;;;1999.90;999.90;;;;;;;;;;4915579;28;20284;-71
2023/12/01 08:05:27;;;;;;;1999.90;999.90;;;;;;;;;;4912977;28;20481;-71
2023/12/01 08:08:14;;;;;;;1999.90;999.90;;;;;;;;;;4912107;29;20358;-70
2023/12/01 08:11:00;;;;;;;1999.90;999.90;;;;;;;;;;4912559;28;20461;-70
2023/12/01 08:13:49;;;;;;;1999.90;999.90;;;;;;;;;;4912360;29;21038;-69
2023/12/01 08:16:35;;;;;;;1999.90;999.90;;;;;;;;;;4912571;29;20448;-70
2023/12/01 08:19:19;;;;;;;1999.90;999.90;;;;;;;;;;4913213;28;20217;-71
2023/12/01 08:22:05;;;;;;;1999.90;999.90;;;;;;;;;;4913217;29;21022;-71
2023/12/01 08:24:50;;;;;;;1999.90;999.90;;;;;;;;;;4912830;29;20990;-71
2023/12/01 08:27:37;;;;;;;1999.90;999.90;;;;;;;;;;4912965;28;20302;-71
2023/12/01 08:30:22;;;;;;;1999.90;999.90;;;;;;;;;;4912760;29;20967;-71
2023/12/01 08:33:07;;;;;;;1999.90;999.90;;;;;;;;;;4913280;28;20515;-71
2023/12/01 08:35:52;;;;;;;1999.90;999.90;;;;;;;;;;4912788;28;20977;-71
2023/12/01 08:38:37;;;;;;;1999.90;999.90;;;;;;;;;;4911768;29;21319;-71
2023/12/01 08:41:21;;;;;;;1999.90;999.90;;;;;;;;;;4912653;28;20476;-71
2023/12/01 08:44:08;;;;;;;1999.90;999.90;;;;;;;;;;4911691;28;20485;-71
2023/12/01 08:46:53;;;;;;;1999.90;999.90;;;;;;;;;;4911172;28;20611;-70
2023/12/01 08:49:38;;;;;;;1999.90;999.90;;;;;;;;;;4912508;29;20419;-71
2023/12/01 08:52:23;;;;;;;1999.90;999.90;;;;;;;;;;4912276;28;20478;-71
2023/12/01 08:55:10;;;;;;;1999.90;999.90;;;;;;;;;;4915892;28;20444;-72
2023/12/01 08:57:55;;;;;;;1999.90;999.90;;;;;;;;;;4911466;29;20444;-72
2023/12/01 09:00:41;;;;;;;1999.90;999.90;;;;;;;;;;4910098;28;20961;-72
2023/12/01 09:03:26;;;;;;;1999.90;999.90;;;;;;;;;;4911825;29;20444;-70
2023/12/01 09:06:11;;;;;;;1999.90;999.90;;;;;;;;;;4912108;29;20444;-70
2023/12/01 09:08:56;;;;;;;1999.90;999.90;;;;;;;;;;4911610;29;20452;-71
2023/12/01 09:11:41;;;;;;;1999.90;999.90;;;;;;;;;;4910320;29;20336;-71
2023/12/01 09:14:25;;;;;;;1999.90;999.90;;;;;;;;;;4911825;29;20948;-70
2023/12/01 09:17:13;;;;;;;1999.90;999.90;;;;;;;;;;4911789;29;20425;-70
2023/12/01 09:19:58;;;;;;;1999.90;999.90;;;;;;;;;;4912573;28;20432;-70
2023/12/01 09:22:43;;;;;;;1999.90;999.90;;;;;;;;;;4911853;29;20566;-71
2023/12/01 09:25:28;;;;;;;1999.90;999.90;;;;;;;;;;4910331;28;20496;-71
2023/12/01 09:28:13;;;;;;;1999.90;999.90;;;;;;;;;;4911762;29;21018;-71
2023/12/01 09:30:58;;;;;;;1999.90;999.90;;;;;;;;;;4911802;28;20951;-71
2023/12/01 09:33:45;;;;;;;1999.90;999.90;;;;;;;;;;4909947;29;20458;-71
2023/12/01 09:36:30;;;;;;;1999.90;999.90;;;;;;;;;;4911788;28;20451;-71
2023/12/01 09:39:16;;;;;;;1999.90;999.90;;;;;;;;;;4911048;29;20457;-70
2023/12/01 09:42:03;;;;;;;1999.90;999.90;;;;;;;;;;4910256;29;20453;-71
2023/12/01 09:44:49;;;;;;;1999.90;999.90;;;;;;;;;;4910505;29;20473;-72
2023/12/01 09:47:35;;;;;;;1999.90;999.90;;;;;;;;;;4909739;28;20608;-70
2023/12/01 09:50:21;;;;;;;1999.90;999.90;;;;;;;;;;4912058;29;20213;-68
2023/12/01 09:53:07;;;;;;;1999.90;999.90;;;;;;;;;;4909033;29;20818;-71
2023/12/01 09:55:52;;;;;;;1999.90;999.90;;;;;;;;;;4910716;29;20487;-71
2023/12/01 09:58:37;;;;;;;1999.90;999.90;;;;;;;;;;4910457;28;20740;-70
2023/12/01 10:01:22;;;;;;;1999.90;999.90;;;;;;;;;;4911301;28;20219;-70
2023/12/01 10:04:08;;;;;;;1999.90;999.90;;;;;;;;;;4911403;29;21015;-71
2023/12/01 10:06:57;;;;;;;1999.90;999.90;;;;;;;;;;4909838;29;20428;-70
2023/12/01 10:09:42;;;;;;;1999.90;999.90;;;;;;;;;;4911536;29;20222;-70
2023/12/01 10:12:27;;;;;;;1999.90;999.90;;;;;;;;;;4911161;28;20213;-68
2023/12/01 10:15:12;;;;;;;1999.90;999.90;;;;;;;;;;4911405;29;20238;-71
2023/12/01 10:18:09;;;;;;;1999.90;999.90;;;;;;;;;;4911141;29;20334;-70
2023/12/01 10:20:55;;;;;;;1999.90;999.90;;;;;;;;;;4911106;29;20218;-69
2023/12/01 10:23:41;;;;;;;1999.90;999.90;;;;;;;;;;4911510;28;20279;-71
2023/12/01 10:26:30;;;;;;;1999.90;999.90;;;;;;;;;;4910987;29;20468;-71
2023/12/01 10:29:29;;;;;;;1999.90;999.90;;;;;;;;;;4910971;28;20429;-71
2023/12/01 10:32:14;;;;;;;1999.90;999.90;;;;;;;;;;4910792;28;20210;-70
2023/12/01 10:35:02;;;;;;;1999.90;999.90;;;;;;;;;;4917874;28;20472;-70
2023/12/01 10:37:47;;;;;;;1999.90;999.90;;;;;;;;;;4909725;29;20253;-71
2023/12/01 10:40:34;;;;;;;1999.90;999.90;;;;;;;;;;4910922;29;20421;-71
2023/12/01 10:43:21;;;;;;;1999.90;999.90;;;;;;;;;;4910287;29;20497;-71
2023/12/01 10:46:06;;;;;;;1999.90;999.90;;;;;;;;;;4911260;29;20508;-71
2023/12/01 10:48:52;;;;;;;1999.90;999.90;;;;;;;;;;4909324;28;20833;-72
2023/12/01 10:51:40;;;;;;;1999.90;999.90;;;;;;;;;;4909339;28;20435;-72
2023/12/01 10:54:27;;;;;;;1999.90;999.90;;;;;;;;;;4910637;28;20801;-72
2023/12/01 10:57:16;;;;;;;1999.90;999.90;;;;;;;;;;4910479;28;20546;-71
2023/12/01 11:00:04;;;;;;;1999.90;999.90;;;;;;;;;;4910085;29;20429;-70
2023/12/01 11:02:50;;;;;;;1999.90;999.90;;;;;;;;;;4909413;29;20539;-71
2023/12/01 11:05:36;;;;;;;1999.90;999.90;;;;;;;;;;4908799;28;20237;-71
2023/12/01 11:08:27;;;;;;;1999.90;999.90;;;;;;;;;;4911022;28;20602;-70
2023/12/01 11:11:17;;;;;;;1999.90;999.90;;;;;;;;;;4909474;28;20777;-71
2023/12/01 11:14:09;;;;;;;1999.90;999.90;;;;;;;;;;4908431;28;21033;-72
2023/12/01 11:16:54;;;;;;;1999.90;999.90;;;;;;;;;;4910781;28;20453;-72
2023/12/01 11:19:40;;;;;;;1999.90;999.90;;;;;;;;;;4909416;28;20233;-71
2023/12/01 11:22:27;;;;;;;1999.90;999.90;;;;;;;;;;4910061;28;20277;-71
2023/12/01 11:25:27;;;;;;;1999.90;999.90;;;;;;;;;;4906864;28;20514;-72
2023/12/01 11:28:20;;;;;;;1999.90;999.90;;;;;;;;;;4908007;28;20699;-72
2023/12/01 11:31:08;;;;;;;1999.90;999.90;;;;;;;;;;4912055;28;20250;-71
2023/12/01 11:33:54;;;;;;;1999.90;999.90;;;;;;;;;;4913023;29;20221;-71
2023/12/01 11:36:48;;;;;;;1999.90;999.90;;;;;;;;;;4913530;29;20602;-70
2023/12/01 11:39:34;;;;;;;1999.90;999.90;;;;;;;;;;4912683;28;20710;-72
2023/12/01 11:42:19;;;;;;;1999.90;999.90;;;;;;;;;;4914702;28;20349;-73
2023/12/01 11:45:04;;;;;;;1999.90;999.90;;;;;;;;;;4909313;29;20839;-73
2023/12/01 11:47:51;;;;;;;1999.90;999.90;;;;;;;;;;4914685;28;21049;-72
2023/12/01 11:50:40;;;;;;;1999.90;999.90;;;;;;;;;;4913605;28;20914;-72
2023/12/01 11:53:25;;;;;;;1999.90;999.90;;;;;;;;;;4914314;29;20234;-72
2023/12/01 11:56:10;;;;;;;1999.90;999.90;;;;;;;;;;4914564;29;20645;-72
2023/12/01 11:58:56;;;;;;;1999.90;999.90;;;;;;;;;;4912644;29;20448;-72
2023/12/01 12:01:41;;;;;;;1999.90;999.90;;;;;;;;;;4914347;28;21155;-72
2023/12/01 12:04:28;;;;;;;1999.90;999.90;;;;;;;;;;4914977;29;20440;-72
2023/12/01 12:07:13;;;;;;;1999.90;999.90;;;;;;;;;;4914556;29;20444;-72
2023/12/01 12:09:58;;;;;;;1999.90;999.90;;;;;;;;;;4913475;28;20824;-71
2023/12/01 12:12:42;;;;;;;1999.90;999.90;;;;;;;;;;4913134;29;20422;-71
2023/12/01 12:15:27;;;;;;;1999.90;999.90;;;;;;;;;;4911578;29;20471;-70
2023/12/01 12:18:13;;;;;;;1999.90;999.90;;;;;;;;;;4913237;28;20449;-71
2023/12/01 12:21:02;;;;;;;1999.90;999.90;;;;;;;;;;4911596;29;20470;-71
2023/12/01 12:23:47;;;;;;;1999.90;999.90;;;;;;;;;;4914315;28;20447;-71
2023/12/01 12:26:33;;;;;;;1999.90;999.90;;;;;;;;;;4915755;28;20464;-71
2023/12/01 12:29:18;;;;;;;1999.90;999.90;;;;;;;;;;4915269;29;20519;-72
2023/12/01 12:32:03;;;;;;;1999.90;999.90;;;;;;;;;;4915394;28;20788;-72
2023/12/01 12:34:48;;;;;;;1999.90;999.90;;;;;;;;;;4914911;28;20590;-72
2023/12/01 12:37:35;;;;;;;1999.90;999.90;;;;;;;;;;4915086;28;20497;-72
2023/12/01 12:40:20;;;;;;;1999.90;999.90;;;;;;;;;;4914064;28;21013;-72
2023/12/01 12:43:07;;;;;;;1999.90;999.90;;;;;;;;;;4914913;29;20479;-72
2023/12/01 12:45:53;;;;;;;1999.90;999.90;;;;;;;;;;4913841;28;20551;-72
2023/12/01 12:48:38;;;;;;;1999.90;999.90;;;;;;;;;;4914813;29;20233;-72
2023/12/01 12:51:24;;;;;;;1999.90;999.90;;;;;;;;;;4915176;29;20579;-71
2023/12/01 12:54:12;;;;;;;1999.90;999.90;;;;;;;;;;4914426;29;20424;-72
2023/12/01 12:56:57;;;;;;;1999.90;999.90;;;;;;;;;;4914893;29;20434;-71
2023/12/01 12:59:42;;;;;;;1999.90;999.90;;;;;;;;;;4914853;28;20432;-72
2023/12/01 13:02:27;;;;;;;1999.90;999.90;;;;;;;;;;4914768;28;20466;-72
2023/12/01 13:05:12;;;;;;;1999.90;999.90;;;;;;;;;;4914495;29;20446;-72
2023/12/01 13:07:57;;;;;;;1999.90;999.90;;;;;;;;;;4914535;28;20450;-72
2023/12/01 13:10:44;;;;;;;1999.90;999.90;;;;;;;;;;4913002;28;20418;-71
2023/12/01 13:13:29;;;;;;;1999.90;999.90;;;;;;;;;;4914390;28;20320;-71
2023/12/01 13:16:14;;;;;;;1999.90;999.90;;;;;;;;;;4914387;28;20855;-71
2023/12/01 13:18:59;;;;;;;1999.90;999.90;;;;;;;;;;4912729;28;20419;-71
2023/12/01 13:21:44;;;;;;;1999.90;999.90;;;;;;;;;;4909407;28;20450;-72
2023/12/01 13:24:29;;;;;;;1999.90;999.90;;;;;;;;;;4909658;28;20516;-70
2023/12/01 13:27:15;;;;;;;1999.90;999.90;;;;;;;;;;4914277;29;20828;-72
2023/12/01 13:30:02;;;;;;;1999.90;999.90;;;;;;;;;;4911811;29;20520;-72
2023/12/01 13:32:48;;;;;;;1999.90;999.90;;;;;;;;;;4911798;29;20443;-72
2023/12/01 13:35:33;;;;;;;1999.90;999.90;;;;;;;;;;4912070;29;20444;-71
2023/12/01 13:38:19;;;;;;;1999.90;999.90;;;;;;;;;;4911456;28;20431;-71
2023/12/01 13:41:04;;;;;;;1999.90;999.90;;;;;;;;;;4912283;29;20436;-72
2023/12/01 13:43:50;;;;;;;1999.90;999.90;;;;;;;;;;4911341;28;20447;-73
2023/12/01 13:46:35;;;;;;;1999.90;999.90;;;;;;;;;;4911735;28;20458;-71
2023/12/01 13:49:20;;;;;;;1999.90;999.90;;;;;;;;;;4909167;28;20485;-72
2023/12/01 13:52:06;;;;;;;1999.90;999.90;;;;;;;;;;4909344;28;20980;-71
2023/12/01 13:54:51;;;;;;;1999.90;999.90;;;;;;;;;;4911340;28;20449;-72
2023/12/01 13:57:39;;;;;;;1999.90;999.90;;;;;;;;;;4910856;28;20454;-70
2023/12/01 14:00:25;;;;;;;1999.90;999.90;;;;;;;;;;4909300;28;20459;-72
2023/12/01 14:03:10;;;;;;;1999.90;999.90;;;;;;;;;;4911496;29;20813;-72
2023/12/01 14:05:55;;;;;;;1999.90;999.90;;;;;;;;;;4910672;29;20421;-72
2023/12/01 14:08:40;;;;;;;1999.90;999.90;;;;;;;;;;4911820;29;20710;-72
2023/12/01 14:11:25;;;;;;;1999.90;999.90;;;;;;;;;;4908482;29;20448;-72
2023/12/01 14:14:10;;;;;;;1999.90;999.90;;;;;;;;;;4910956;28;20334;-71
2023/12/01 14:16:56;;;;;;;1999.90;999.90;;;;;;;;;;4911528;29;20788;-73
2023/12/01 14:19:42;;;;;;;1999.90;999.90;;;;;;;;;;4911350;29;20486;-73
2023/12/01 14:22:27;;;;;;;1999.90;999.90;;;;;;;;;;4910149;29;20360;-71
2023/12/01 14:25:13;;;;;;;1999.90;999.90;;;;;;;;;;4912744;28;20594;-70
2023/12/01 14:27:57;;;;;;;1999.90;999.90;;;;;;;;;;4911385;29;20413;-70
2023/12/01 14:30:43;;;;;;;1999.90;999.90;;;;;;;;;;4909631;28;20724;-71
2023/12/01 14:33:29;;;;;;;1999.90;999.90;;;;;;;;;;4909867;29;20828;-72
2023/12/01 14:36:14;;;;;;;1999.90;999.90;;;;;;;;;;4911043;29;20462;-72
2023/12/01 14:38:59;;;;;;;1999.90;999.90;;;;;;;;;;4910293;28;20463;-71
2023/12/01 14:52:24;;;;;;;1999.90;999.90;;;;;;;;;;5118920;27;20584;-74
2023/12/01 14:55:09;;;;;;;1999.90;999.90;;;;;;;;;;5116113;28;20237;-71
2023/12/01 14:57:55;;;;;;;1999.90;999.90;;;;;;;;;;5125487;28;20410;-73
2023/12/01 15:00:39;;;;;;;1999.90;999.90;;;;;;;;;;5127574;28;20462;-72
2023/12/01 15:03:25;;;;;;;1999.90;999.90;;;;;;;;;;5122385;28;20685;-72
2023/12/01 15:06:11;;;;;;;1999.90;999.90;;;;;;;;;;5126677;28;20449;-73
2023/12/01 15:08:57;;;;;;;1999.90;999.90;;;;;;;;;;5122618;28;20455;-71
2023/12/01 15:11:44;;;;;;;1999.90;999.90;;;;;;;;;;5126578;28;20922;-72
2023/12/01 15:14:29;;;;;;;1999.90;999.90;;;;;;;;;;5122503;28;20415;-71
2023/12/01 15:17:14;;;;;;;1999.90;999.90;;;;;;;;;;5122132;28;20420;-72
2023/12/01 15:19:59;;;;;;;1999.90;999.90;;;;;;;;;;5123684;28;20544;-72
2023/12/01 15:22:44;;;;;;;1999.90;999.90;;;;;;;;;;5121683;28;21201;-73
2023/12/01 15:25:30;;;;;;;1999.90;999.90;;;;;;;;;;5121795;28;20472;-73
2023/12/01 15:28:15;;;;;;;1999.90;999.90;;;;;;;;;;5125143;28;20449;-74
2023/12/01 15:31:00;;;;;;;1999.90;999.90;;;;;;;;;;5124992;28;20420;-73
2023/12/01 15:33:45;;;;;;;1999.90;999.90;;;;;;;;;;5122887;28;20452;-73
2023/12/01 15:36:30;;;;;;;1999.90;999.90;;;;;;;;;;5123134;28;20442;-73
2023/12/01 15:39:15;;;;;;;1999.90;999.90;;;;;;;;;;5123566;28;20816;-71
2023/12/01 15:42:01;;;;;;;1999.90;999.90;;;;;;;;;;5125042;28;20464;-73
2023/12/01 15:44:49;;;;;;;1999.90;999.90;;;;;;;;;;5125851;28;20443;-71
2023/12/01 15:47:34;;;;;;;1999.90;999.90;;;;;;;;;;5125330;28;20940;-73
2023/12/01 15:50:19;;;;;;;1999.90;999.90;;;;;;;;;;5124365;28;20683;-71
2023/12/01 15:53:04;;;;;;;1999.90;999.90;;;;;;;;;;5114015;28;20999;-73
2023/12/01 15:55:49;;;;;;;1999.90;999.90;;;;;;;;;;5112004;28;20888;-73
2023/12/01 15:58:35;;;;;;;1999.90;999.90;;;;;;;;;;5111631;28;20997;-73
2023/12/01 16:01:20;;;;;;;1999.90;999.90;;;;;;;;;;5111003;28;20468;-71
2023/12/01 16:04:05;;;;;;;1999.90;999.90;;;;;;;;;;5111657;28;20430;-73
2023/12/01 16:06:50;;;;;;;1999.90;999.90;;;;;;;;;;5112713;28;20422;-72
2023/12/01 16:09:35;;;;;;;1999.90;999.90;;;;;;;;;;5110893;28;20415;-71
2023/12/01 16:12:19;;;;;;;1999.90;999.90;;;;;;;;;;5110175;28;20468;-74
2023/12/01 16:15:07;;;;;;;1999.90;999.90;;;;;;;;;;5108621;28;20480;-72
2023/12/01 16:17:52;;;;;;;1999.90;999.90;;;;;;;;;;5112565;28;20454;-73
2023/12/01 16:20:37;;;;;;;1999.90;999.90;;;;;;;;;;5111479;28;20468;-74
2023/12/01 16:23:22;;;;;;;1999.90;999.90;;;;;;;;;;5110014;28;20412;-74
2023/12/01 16:26:11;;;;;;;1999.90;999.90;;;;;;;;;;5111223;28;20442;-73
2023/12/01 16:28:56;;;;;;;1999.90;999.90;;;;;;;;;;5108985;28;20776;-74
2023/12/01 16:31:43;;;;;;;1999.90;999.90;;;;;;;;;;5111485;28;20873;-71
2023/12/01 16:34:28;;;;;;;1999.90;999.90;;;;;;;;;;5104476;28;20570;-74
2023/12/01 16:37:12;;;;;;;1999.90;999.90;;;;;;;;;;5110103;28;20934;-72
2023/12/01 16:39:57;;;;;;;1999.90;999.90;;;;;;;;;;5108842;28;20500;-74
2023/12/01 16:42:42;;;;;;;1999.90;999.90;;;;;;;;;;5110261;28;20417;-72
2023/12/01 16:45:27;;;;;;;1999.90;999.90;;;;;;;;;;5109425;28;20502;-73
2023/12/01 16:48:14;;;;;;;1999.90;999.90;;;;;;;;;;5108418;28;20422;-72
2023/12/01 16:50:59;;;;;;;1999.90;999.90;;;;;;;;;;5110675;28;20887;-73
2023/12/01 16:53:45;;;;;;;1999.90;999.90;;;;;;;;;;5110709;28;20420;-75
2023/12/01 16:56:31;;;;;;;1999.90;999.90;;;;;;;;;;5109683;28;20440;-73
2023/12/01 16:59:16;;;;;;;1999.90;999.90;;;;;;;;;;5110315;28;20416;-72